Time;durP1;ratioP1;P1;durP2;ratioP2;P2;SDS_P1;SDS_P2;PMS_P1;PMS_P2;Temp;Humidity;BMP_temperature;BMP_pressure;BME280_temperature;BME280_humidity;BME280_pressure;Samples;Min_cycle;Max_cycle;Signal;HPM_P1;HPM_P2
2024/01/25 00:00:48;;;;;;;;;;;;;;;7.48;62.28;99853.16;4416349;32;33636;-85
2024/01/25 00:03:19;;;;;;;;;;;;;;;7.52;62.14;99857.47;4416445;32;33666;-86
2024/01/25 00:05:48;;;;;;;;;;;;;;;7.65;61.62;99840.28;4417350;32;34834;-86
2024/01/25 00:08:19;;;;;;;;;;;;;;;7.56;61.52;99848.00;4421737;32;33732;-86
2024/01/25 00:10:49;;;;;;;;;;;;;;;7.56;61.49;99851.44;4419992;32;35453;-86
2024/01/25 00:13:18;;;;;;;;;;;;;;;7.59;61.29;99841.13;4416315;32;33087;-86
2024/01/25 00:15:49;;;;;;;;;;;;;;;7.62;61.21;99848.03;4416551;32;34182;-86
2024/01/25 00:18:24;;;;;;;;;;;;;;;7.66;60.97;99840.28;4421823;32;33595;-86
2024/01/25 00:20:53;;;;;;;;;;;;;;;7.72;60.71;99841.16;4407902;32;32997;-86
2024/01/25 00:23:31;;;;;;;;;;;;;;;7.71;60.42;99853.22;4415969;32;34270;-86
2024/01/25 00:26:00;;;;;;;;;;;;;;;7.77;60.28;99847.19;4415733;32;34401;-86
2024/01/25 00:28:33;;;;;;;;;;;;;;;7.90;59.51;99838.56;4418739;32;33461;-86
2024/01/25 00:31:02;;;;;;;;;;;;;;;8.00;58.81;99840.31;4421973;32;33698;-85
2024/01/25 00:33:40;;;;;;;;;;;;;;;8.04;58.61;99838.56;4420319;32;33593;-86
2024/01/25 00:36:13;;;;;;;;;;;;;;;8.09;58.10;99837.72;4415324;32;34078;-85
2024/01/25 00:38:44;;;;;;;;;;;;;;;8.09;58.06;99835.13;4417348;32;35059;-86
2024/01/25 00:41:13;;;;;;;;;;;;;;;8.28;57.59;99850.59;4415600;32;34119;-85
2024/01/25 00:43:42;;;;;;;;;;;;;;;8.33;56.98;99846.28;4417324;32;33082;-86
2024/01/25 00:46:13;;;;;;;;;;;;;;;8.38;56.90;99848.84;4416093;32;34684;-86
2024/01/25 00:48:43;;;;;;;;;;;;;;;8.40;56.69;99849.75;4416311;32;33947;-85
2024/01/25 00:51:16;;;;;;;;;;;;;;;8.28;56.96;99851.47;4415670;32;33631;-84
2024/01/25 00:53:47;;;;;;;;;;;;;;;8.39;56.64;99856.63;4273990;32;4724818;-85
2024/01/25 00:56:16;;;;;;;;;;;;;;;8.48;56.18;99851.47;4421892;32;33891;-85
2024/01/25 00:58:47;;;;;;;;;;;;;;;8.37;56.61;99857.50;4404560;32;33217;-84
2024/01/25 01:01:20;;;;;;;;;;;;;;;8.36;56.59;99846.31;4416584;32;33867;-85
2024/01/25 01:03:52;;;;;;;;;;;;;;;8.52;56.15;99832.47;4415814;32;33413;-85
2024/01/25 01:06:27;;;;;;;;;;;;;;;8.32;56.36;99847.16;4421282;32;33488;-86
2024/01/25 01:09:01;;;;;;;;;;;;;;;8.39;56.14;99841.13;4417129;32;33957;-86
2024/01/25 01:11:31;;;;;;;;;;;;;;;8.34;56.34;99842.84;4417604;32;34809;-86
2024/01/25 01:13:59;;;;;;;;;;;;;;;8.23;56.70;99845.44;4416107;32;33786;-86
2024/01/25 01:16:30;;;;;;;;;;;;;;;8.31;56.29;99853.19;4410974;32;33956;-86
2024/01/25 01:19:07;;;;;;;;;;;;;;;8.31;56.19;99848.87;4420398;32;34676;-86
2024/01/25 01:21:38;;;;;;;;;;;;;;;8.33;56.19;99851.44;4405271;32;33193;-86
2024/01/25 01:24:15;;;;;;;;;;;;;;;8.28;56.26;99850.59;4415171;32;33102;-86
2024/01/25 01:26:44;;;;;;;;;;;;;;;8.30;56.09;99854.06;4414466;32;34716;-86
2024/01/25 01:29:19;;;;;;;;;;;;;;;8.20;56.43;99853.19;4501211;26;33494;31
2024/01/25 01:31:47;;;;;;;;;;;;;;;8.46;55.97;99852.34;4404072;32;32213;-86
2024/01/25 01:34:20;;;;;;;;;;;;;;;8.30;56.22;99846.28;4432840;26;34053;-86
2024/01/25 01:36:52;;;;;;;;;;;;;;;8.18;56.50;99841.16;4416634;32;34146;-85
2024/01/25 01:39:30;;;;;;;;;;;;;;;8.17;56.42;99837.72;4469070;26;35103;-84
2024/01/25 01:42:07;;;;;;;;;;;;;;;8.15;56.52;99839.44;4494547;26;33849;-85
2024/01/25 01:44:42;;;;;;;;;;;;;;;8.08;56.69;99835.97;4455925;26;32879;-85
2024/01/25 01:47:11;;;;;;;;;;;;;;;8.18;56.45;99835.97;4421382;32;34074;-85
2024/01/25 01:49:44;;;;;;;;;;;;;;;8.20;56.59;99829.94;4424843;32;33864;-85
2024/01/25 01:52:12;;;;;;;;;;;;;;;8.15;56.61;99831.69;4428267;32;34151;-84
2024/01/25 01:54:49;;;;;;;;;;;;;;;8.19;56.42;99829.94;4506621;26;33749;31
2024/01/25 01:57:19;;;;;;;;;;;;;;;8.12;56.64;99818.75;4402709;32;32429;-86
2024/01/25 01:59:50;;;;;;;;;;;;;;;8.13;56.79;99823.91;4402401;32;34077;-86
2024/01/25 02:02:23;;;;;;;;;;;;;;;8.12;56.72;99829.97;4400360;32;36229;-86
2024/01/25 02:04:53;;;;;;;;;;;;;;;8.30;56.15;99823.03;4397450;32;33230;-86
2024/01/25 02:07:22;;;;;;;;;;;;;;;8.22;56.49;99825.63;4390996;32;33444;-86
2024/01/25 02:09:56;;;;;;;;;;;;;;;8.18;56.84;99811.00;4400902;32;33668;-86
2024/01/25 02:12:28;;;;;;;;;;;;;;;8.09;56.79;99806.72;4401720;32;34167;-86
2024/01/25 02:14:56;;;;;;;;;;;;;;;8.15;56.86;99810.16;4400039;32;33464;-85
2024/01/25 02:17:25;;;;;;;;;;;;;;;8.33;56.38;99792.84;4406965;32;33772;-85
2024/01/25 02:19:55;;;;;;;;;;;;;;;8.29;56.21;99795.47;4401243;32;34217;-85
2024/01/25 02:22:25;;;;;;;;;;;;;;;8.36;56.02;99804.94;4407247;32;33585;-85
2024/01/25 02:24:54;;;;;;;;;;;;;;;8.40;56.17;99788.56;4401877;32;33245;-86
2024/01/25 02:27:25;;;;;;;;;;;;;;;8.39;56.23;99789.41;4404419;32;33048;-86
2024/01/25 02:29:58;;;;;;;;;;;;;;;8.48;55.91;99781.66;4405556;32;33639;-86
2024/01/25 02:32:26;;;;;;;;;;;;;;;8.52;55.94;99783.34;4405701;32;33960;-86
2024/01/25 02:34:55;;;;;;;;;;;;;;;8.41;56.27;99779.97;4401573;32;32821;-85
2024/01/25 02:37:25;;;;;;;;;;;;;;;8.62;55.90;99770.41;4400578;32;33911;-85
2024/01/25 02:39:54;;;;;;;;;;;;;;;8.56;55.89;99776.47;4406285;32;35538;-86
2024/01/25 02:42:30;;;;;;;;;;;;;;;8.47;56.37;99767.00;4402878;32;33334;-86
2024/01/25 02:44:59;;;;;;;;;;;;;;;8.63;55.98;99772.13;4398525;32;33007;-86
2024/01/25 02:47:33;;;;;;;;;;;;;;;8.58;56.18;99769.56;4386618;32;33217;-86
2024/01/25 02:50:04;;;;;;;;;;;;;;;8.58;56.20;99779.03;4387108;32;34741;-86
2024/01/25 02:52:35;;;;;;;;;;;;;;;8.63;56.16;99795.41;4391798;32;34091;-85
2024/01/25 02:55:09;;;;;;;;;;;;;;;8.68;56.18;99779.00;4395783;32;33676;-85
2024/01/25 02:57:38;;;;;;;;;;;;;;;8.64;56.45;99779.03;4401485;32;34138;-86
2024/01/25 03:00:10;;;;;;;;;;;;;;;8.48;56.81;99779.09;4401183;32;34988;-86
2024/01/25 03:02:39;;;;;;;;;;;;;;;8.58;56.84;99785.09;4407749;32;34117;-86
2024/01/25 03:05:11;;;;;;;;;;;;;;;8.51;56.96;99781.66;4402473;32;33821;-85
2024/01/25 03:07:41;;;;;;;;;;;;;;;8.39;57.62;99770.47;4403464;32;33422;-86
2024/01/25 03:10:19;;;;;;;;;;;;;;;8.40;58.12;99780.81;4403293;32;33641;-86
2024/01/25 03:12:49;;;;;;;;;;;;;;;8.53;58.11;99776.47;4404124;32;34248;-86
2024/01/25 03:15:22;;;;;;;;;;;;;;;8.56;58.53;99791.97;4406718;32;34039;-85
2024/01/25 03:17:51;;;;;;;;;;;;;;;8.47;59.08;99792.84;4401574;32;34344;-86
2024/01/25 03:20:21;;;;;;;;;;;;;;;8.49;59.28;99801.47;4401898;32;33511;-86
2024/01/25 03:22:57;;;;;;;;;;;;;;;8.40;59.93;99805.81;4404271;32;34034;-86
2024/01/25 03:25:26;;;;;;;;;;;;;;;8.36;60.10;99798.88;4401862;32;33194;-86
2024/01/25 03:28:00;;;;;;;;;;;;;;;8.41;60.22;99808.41;4407086;32;33811;-86
2024/01/25 03:30:28;;;;;;;;;;;;;;;8.43;60.06;99801.50;4387138;32;34692;-85
2024/01/25 03:32:57;;;;;;;;;;;;;;;8.49;60.12;99795.44;4388573;32;34678;-85
2024/01/25 03:35:29;;;;;;;;;;;;;;;8.36;60.53;99789.44;4386393;32;33354;-85
2024/01/25 03:38:00;;;;;;;;;;;;;;;8.23;60.88;99796.31;4392073;32;34627;-85
2024/01/25 03:40:29;;;;;;;;;;;;;;;8.39;60.38;99773.91;4386391;32;34176;-85
2024/01/25 03:42:58;;;;;;;;;;;;;;;8.30;60.54;99784.25;4382713;32;34100;-85
2024/01/25 03:45:49;;;;;;;;;;;;;;;8.42;60.46;99793.75;4379298;32;34281;-85
2024/01/25 03:48:18;;;;;;;;;;;;;;;8.39;60.57;99779.06;4381995;32;35284;-85
2024/01/25 03:50:47;;;;;;;;;;;;;;;8.37;60.38;99805.78;4377556;32;34507;-85
2024/01/25 03:53:17;;;;;;;;;;;;;;;8.38;60.38;99777.34;4388731;32;34515;-86
2024/01/25 03:55:49;;;;;;;;;;;;;;;8.43;59.85;99788.59;4386031;32;32163;-85
2024/01/25 03:58:19;;;;;;;;;;;;;;;8.44;59.50;99790.28;4385884;32;33526;-86
2024/01/25 04:00:50;;;;;;;;;;;;;;;8.51;59.31;99785.97;4390613;32;34888;-86
2024/01/25 04:03:19;;;;;;;;;;;;;;;8.49;59.09;99787.69;4391514;32;33653;-85
2024/01/25 04:05:52;;;;;;;;;;;;;;;8.40;59.26;99788.56;4386430;32;34039;-86
2024/01/25 04:08:22;;;;;;;;;;;;;;;8.45;58.97;99793.72;4386427;32;33426;-86
2024/01/25 04:10:52;;;;;;;;;;;;;;;8.61;58.20;99802.31;4402309;32;33108;-86
2024/01/25 04:13:21;;;;;;;;;;;;;;;8.52;58.33;99792.84;4406816;32;33441;-85
2024/01/25 04:15:50;;;;;;;;;;;;;;;8.53;58.66;99792.00;4401000;32;33134;-85
2024/01/25 04:18:23;;;;;;;;;;;;;;;8.46;58.92;99793.75;4400824;32;33251;-86
2024/01/25 04:20:55;;;;;;;;;;;;;;;8.40;58.94;99792.88;4401393;32;35458;-86
2024/01/25 04:23:25;;;;;;;;;;;;;;;8.52;58.73;99773.00;4401428;32;34452;-86
2024/01/25 04:25:55;;;;;;;;;;;;;;;8.56;58.64;99778.19;4406747;32;33174;-86
2024/01/25 04:28:24;;;;;;;;;;;;;;;8.38;59.31;99781.66;4400275;32;33368;-85
2024/01/25 04:30:56;;;;;;;;;;;;;;;8.41;59.25;99789.41;4386088;32;33941;-86
2024/01/25 04:33:24;;;;;;;;;;;;;;;8.43;59.28;99798.94;4385661;32;33679;-86
2024/01/25 04:35:53;;;;;;;;;;;;;;;8.34;59.64;99792.00;4391494;32;33594;-86
2024/01/25 04:38:29;;;;;;;;;;;;;;;8.47;59.31;99792.00;4385835;32;33529;-86
2024/01/25 04:40:59;;;;;;;;;;;;;;;8.47;59.27;99805.78;4386346;32;32668;-86
2024/01/25 04:43:27;;;;;;;;;;;;;;;8.37;59.44;99806.66;4383269;32;34461;-85
2024/01/25 04:46:01;;;;;;;;;;;;;;;8.43;59.32;99816.13;4382493;32;33235;-85
2024/01/25 04:48:30;;;;;;;;;;;;;;;8.48;59.21;99832.50;4385054;32;34112;-86
2024/01/25 04:51:01;;;;;;;;;;;;;;;8.47;59.36;99829.06;4520676;26;34590;-85
2024/01/25 04:53:33;;;;;;;;;;;;;;;8.32;59.83;99844.56;4487010;26;34357;-85
2024/01/25 04:56:01;;;;;;;;;;;;;;;8.40;59.56;99837.69;4416060;32;33403;-86
2024/01/25 04:58:31;;;;;;;;;;;;;;;8.45;59.51;99840.25;4421700;32;33807;-86
2024/01/25 05:00:59;;;;;;;;;;;;;;;8.41;59.29;99847.19;4416076;32;34357;-85
2024/01/25 05:03:30;;;;;;;;;;;;;;;8.37;59.50;99841.97;4416096;32;33358;-85
2024/01/25 05:05:59;;;;;;;;;;;;;;;8.46;59.43;99831.66;4415849;32;32646;-85
2024/01/25 05:08:28;;;;;;;;;;;;;;;8.47;59.19;99838.53;4562516;26;34190;-86
2024/01/25 05:11:01;;;;;;;;;;;;;;;8.38;59.13;99843.69;4417408;32;34798;-86
2024/01/25 05:13:29;;;;;;;;;;;;;;;8.39;59.16;99832.50;4416182;32;33956;-86
2024/01/25 05:15:58;;;;;;;;;;;;;;;8.48;58.89;99842.84;4419509;32;32989;-85
2024/01/25 05:18:30;;;;;;;;;;;;;;;8.41;59.12;99839.44;4415500;32;34187;-85
2024/01/25 05:21:03;;;;;;;;;;;;;;;8.30;59.49;99829.06;4420873;32;34978;-85
2024/01/25 05:23:33;;;;;;;;;;;;;;;8.28;59.40;99837.69;4409410;32;34039;-86
2024/01/25 05:26:06;;;;;;;;;;;;;;;8.28;59.70;99827.34;4419608;32;33679;-86
2024/01/25 05:28:35;;;;;;;;;;;;;;;8.28;59.51;99832.50;4402395;32;32024;-85
2024/01/25 05:31:12;;;;;;;;;;;;;;;8.36;59.39;99848.00;4408773;32;32447;-86
2024/01/25 05:33:43;;;;;;;;;;;;;;;8.18;59.92;99844.59;4418066;32;35345;-86
2024/01/25 05:36:15;;;;;;;;;;;;;;;8.24;60.07;99842.00;4418309;32;33114;-85
2024/01/25 05:38:51;;;;;;;;;;;;;;;8.03;60.87;99847.19;4417172;32;33834;-85
2024/01/25 05:41:21;;;;;;;;;;;;;;;7.83;61.65;99821.38;4417277;32;33864;-85
2024/01/25 05:43:54;;;;;;;;;;;;;;;8.04;61.22;99829.09;4422446;32;34833;-85
2024/01/25 05:46:23;;;;;;;;;;;;;;;8.01;61.44;99836.00;4415692;32;33842;-85
2024/01/25 05:48:52;;;;;;;;;;;;;;;8.03;61.42;99821.34;4410799;32;34043;-85
2024/01/25 05:51:21;;;;;;;;;;;;;;;7.96;61.76;99827.38;4407910;32;34172;-86
2024/01/25 05:53:53;;;;;;;;;;;;;;;8.03;61.63;99826.53;4413429;32;34343;-86
2024/01/25 05:56:23;;;;;;;;;;;;;;;8.00;61.52;99819.63;4421855;32;32949;-86
2024/01/25 05:58:52;;;;;;;;;;;;;;;8.03;61.64;99817.03;4417349;32;35454;-86
2024/01/25 06:01:21;;;;;;;;;;;;;;;8.12;61.26;99826.53;4417422;32;33910;-86
2024/01/25 06:03:58;;;;;;;;;;;;;;;8.07;61.46;99826.53;4412792;32;33969;-86
2024/01/25 06:06:26;;;;;;;;;;;;;;;8.09;61.51;99832.56;4422521;32;34152;-85
2024/01/25 06:08:59;;;;;;;;;;;;;;;7.99;61.71;99829.97;4416964;32;34429;-85
2024/01/25 06:11:42;;;;;;;;;;;;;;;8.02;61.64;99828.25;4416572;32;34360;-85
2024/01/25 06:14:11;;;;;;;;;;;;;;;8.11;61.37;99820.47;4416634;32;33768;-85
2024/01/25 06:16:39;;;;;;;;;;;;;;;8.06;61.42;99822.19;4416624;32;33574;-85
2024/01/25 06:19:09;;;;;;;;;;;;;;;8.02;61.51;99810.16;4416942;32;33668;-85
2024/01/25 06:21:39;;;;;;;;;;;;;;;8.03;61.38;99824.78;4411327;32;34038;-84
2024/01/25 06:24:09;;;;;;;;;;;;;;;7.93;61.67;99825.66;4414518;32;33783;-85
2024/01/25 06:26:41;;;;;;;;;;;;;;;7.93;61.61;99820.50;4415005;32;33503;-85
2024/01/25 06:29:14;;;;;;;;;;;;;;;8.09;60.66;99848.06;4417328;32;33157;-85
2024/01/25 06:31:44;;;;;;;;;;;;;;;7.94;61.10;99819.63;4421548;32;34132;-85
2024/01/25 06:34:14;;;;;;;;;;;;;;;8.09;60.15;99837.72;4416885;32;34132;-85
2024/01/25 06:36:43;;;;;;;;;;;;;;;8.25;59.41;99822.19;4416948;32;32999;-84
2024/01/25 06:39:16;;;;;;;;;;;;;;;8.27;59.44;99820.47;4416272;32;33939;-85
2024/01/25 06:41:50;;;;;;;;;;;;;;;8.30;58.95;99831.63;4422239;32;34294;-85
2024/01/25 06:44:20;;;;;;;;;;;;;;;8.35;58.77;99829.06;4417652;32;33935;-85
2024/01/25 06:46:52;;;;;;;;;;;;;;;8.45;58.16;99835.09;4419135;32;33373;-84
2024/01/25 06:49:21;;;;;;;;;;;;;;;8.40;58.61;99853.19;4416566;32;33980;-85
2024/01/25 06:51:58;;;;;;;;;;;;;;;8.43;58.10;99818.72;4416686;32;33544;-85
2024/01/25 06:54:27;;;;;;;;;;;;;;;8.35;58.30;99810.97;4422346;32;33474;-85
2024/01/25 06:56:59;;;;;;;;;;;;;;;8.32;57.95;99800.63;4419058;32;32303;-85
2024/01/25 06:59:31;;;;;;;;;;;;;;;8.33;57.71;99800.59;4416889;32;33971;-85
2024/01/25 07:02:02;;;;;;;;;;;;;;;8.46;57.52;99808.41;4416530;32;34652;-84
2024/01/25 07:07:06;;;;;;;;;;;;;;;8.44;57.46;99810.97;4418646;32;33555;-85
2024/01/25 07:09:36;;;;;;;;;;;;;;;8.52;57.13;99811.78;4416563;32;33242;-85
2024/01/25 07:12:05;;;;;;;;;;;;;;;8.48;57.45;99824.72;4416499;32;33839;-85
2024/01/25 07:14:44;;;;;;;;;;;;;;;8.41;57.40;99846.28;4417777;32;34443;-86
2024/01/25 07:17:12;;;;;;;;;;;;;;;8.62;57.07;99835.06;4413434;32;33072;-85
2024/01/25 07:19:49;;;;;;;;;;;;;;;8.57;57.07;99831.63;4406352;32;33521;-85
2024/01/25 07:22:26;;;;;;;;;;;;;;;8.53;57.07;99839.41;4395832;32;32165;-85
2024/01/25 07:24:55;;;;;;;;;;;;;;;8.57;56.58;99814.38;4414365;32;34772;-84
2024/01/25 07:27:24;;;;;;;;;;;;;;;8.42;57.47;99802.34;4405650;32;32896;-85
2024/01/25 07:29:54;;;;;;;;;;;;;;;8.59;56.85;99811.78;4411058;32;33127;-84
2024/01/25 07:32:25;;;;;;;;;;;;;;;8.39;57.43;99810.09;4408515;32;35589;-84
2024/01/25 07:34:57;;;;;;;;;;;;;;;8.64;56.63;99797.13;4401047;32;33589;-84
2024/01/25 07:37:26;;;;;;;;;;;;;;;8.57;56.46;99808.34;4401207;32;33542;-85
2024/01/25 07:39:55;;;;;;;;;;;;;;;8.47;56.80;99804.94;4404843;32;34603;-86
2024/01/25 07:42:24;;;;;;;;;;;;;;;8.35;56.94;99790.28;4409232;32;33678;-84
2024/01/25 07:44:59;;;;;;;;;;;;;;;8.46;56.92;99785.13;4409781;32;34079;-84
2024/01/25 07:47:28;;;;;;;;;;;;;;;8.66;56.40;99783.31;4417571;32;32852;-83
2024/01/25 07:49:57;;;;;;;;;;;;;;;8.70;56.38;99789.34;4413345;32;33477;-85
2024/01/25 07:52:27;;;;;;;;;;;;;;;8.72;55.84;99779.84;4406409;32;34252;-85
2024/01/25 07:54:56;;;;;;;;;;;;;;;8.79;55.43;99785.84;4401435;32;33809;-86
2024/01/25 07:57:25;;;;;;;;;;;;;;;8.69;55.42;99800.53;4404504;32;32896;-84
2024/01/25 08:00:00;;;;;;;;;;;;;;;8.79;53.86;99791.03;4408339;32;33693;-85
2024/01/25 08:02:32;;;;;;;;;;;;;;;8.88;53.29;99815.12;4401645;32;34061;-85
2024/01/25 08:05:04;;;;;;;;;;;;;;;8.88;52.17;99837.56;4406514;32;34438;-85
2024/01/25 08:07:34;;;;;;;;;;;;;;;9.08;52.00;99837.47;4401431;32;32774;-85
2024/01/25 08:10:04;;;;;;;;;;;;;;;9.35;51.39;99815.72;4416302;32;33223;-84
2024/01/25 08:12:38;;;;;;;;;;;;;;;9.20;51.84;99827.03;4416327;32;33961;-83
2024/01/25 08:15:10;;;;;;;;;;;;;;;9.26;51.88;99829.59;4421412;32;33835;-84
2024/01/25 08:17:39;;;;;;;;;;;;;;;9.36;51.79;99836.44;4418503;32;33355;-83
2024/01/25 08:20:09;;;;;;;;;;;;;;;9.28;52.21;99856.34;4415577;32;33722;-84
2024/01/25 08:22:41;;;;;;;;;;;;;;;9.20;52.44;99847.75;4413252;32;34375;-84
2024/01/25 08:25:13;;;;;;;;;;;;;;;9.31;52.65;99845.97;4415330;32;34670;-84
2024/01/25 08:27:51;;;;;;;;;;;;;;;9.34;53.02;99855.44;4416011;32;33633;-84
2024/01/25 08:30:21;;;;;;;;;;;;;;;9.35;53.12;99850.28;4415891;32;34105;-84
2024/01/25 08:32:52;;;;;;;;;;;;;;;9.46;53.23;99847.59;4404194;32;33637;-85
2024/01/25 08:35:21;;;;;;;;;;;;;;;9.25;53.90;99858.94;4417353;32;34230;-85
2024/01/25 08:37:51;;;;;;;;;;;;;;;9.37;53.74;99869.25;4415845;32;33899;-85
2024/01/25 08:40:19;;;;;;;;;;;;;;;9.60;53.29;99860.47;4421722;32;33710;-86
2024/01/25 08:42:54;;;;;;;;;;;;;;;9.56;52.88;99869.13;4418932;32;34968;-85
2024/01/25 08:45:32;;;;;;;;;;;;;;;9.49;53.36;99857.94;4416437;32;34463;-86
2024/01/25 08:48:00;;;;;;;;;;;;;;;9.57;53.16;99863.94;4405498;32;33853;-86
2024/01/25 08:50:33;;;;;;;;;;;;;;;9.46;52.41;99860.56;4419886;32;33611;-84
2024/01/25 08:53:02;;;;;;;;;;;;;;;9.37;52.92;99876.12;4416772;32;36675;-84
2024/01/25 08:55:38;;;;;;;;;;;;;;;9.39;53.14;99862.31;4412147;32;33671;-85
2024/01/25 08:58:08;;;;;;;;;;;;;;;9.50;52.65;99874.38;4412048;32;33830;-86
2024/01/25 09:00:41;;;;;;;;;;;;;;;9.59;52.37;99872.56;4415816;32;34046;-86
2024/01/25 09:03:10;;;;;;;;;;;;;;;9.65;52.51;99882.03;4421318;32;34277;-86
2024/01/25 09:05:44;;;;;;;;;;;;;;;9.75;52.49;99872.47;4412115;32;33768;-85
2024/01/25 09:08:14;;;;;;;;;;;;;;;9.75;52.11;99878.50;4417321;32;33096;-85
2024/01/25 09:10:44;;;;;;;;;;;;;;;9.75;51.42;99888.88;4418466;32;33599;-84
2024/01/25 09:13:13;;;;;;;;;;;;;;;9.65;51.95;99883.75;4411389;32;33636;-85
2024/01/25 09:15:48;;;;;;;;;;;;;;;9.68;51.54;99900.13;4414897;32;33521;-85
2024/01/25 09:18:17;;;;;;;;;;;;;;;9.54;52.31;99891.59;4417588;32;31900;-85
2024/01/25 09:20:48;;;;;;;;;;;;;;;9.88;51.61;99897.41;4415142;32;33327;-86
2024/01/25 09:23:18;;;;;;;;;;;;;;;10.04;51.45;99906.78;4415456;32;33230;-85
2024/01/25 09:25:47;;;;;;;;;;;;;;;9.90;52.06;99905.19;4413383;32;34501;-85
2024/01/25 09:28:29;;;;;;;;;;;;;;;9.82;52.27;99944.09;4414018;32;33864;-85
2024/01/25 09:31:07;;;;;;;;;;;;;;;9.84;52.02;99906.09;4403019;32;33870;-86
2024/01/25 09:33:36;;;;;;;;;;;;;;;9.79;52.26;99906.12;4412106;32;34793;-84
2024/01/25 09:36:13;;;;;;;;;;;;;;;9.73;51.98;99905.28;4402206;32;35007;-85
2024/01/25 09:38:42;;;;;;;;;;;;;;;9.92;51.72;99912.06;4410486;32;33823;-85
2024/01/25 09:41:15;;;;;;;;;;;;;;;9.75;51.93;99909.59;4416670;32;33588;-85
2024/01/25 09:43:45;;;;;;;;;;;;;;;9.77;50.95;99899.22;4409831;32;33848;-86
2024/01/25 09:46:16;;;;;;;;;;;;;;;9.87;50.00;99893.09;4416147;32;34687;-84
2024/01/25 09:48:47;;;;;;;;;;;;;;;9.92;49.25;99906.03;4414679;32;33264;-85
2024/01/25 09:51:19;;;;;;;;;;;;;;;9.91;48.09;99889.63;4418461;32;34176;-82
2024/01/25 09:53:49;;;;;;;;;;;;;;;9.76;48.55;99916.50;4414080;32;34288;-83
2024/01/25 09:56:19;;;;;;;;;;;;;;;9.79;48.97;99913.91;4419173;32;33305;-83
2024/01/25 09:58:49;;;;;;;;;;;;;;;9.89;48.28;99906.06;4414780;32;32693;-83
2024/01/25 10:01:20;;;;;;;;;;;;;;;9.98;48.47;99916.38;4415016;32;33221;-83
2024/01/25 10:03:56;;;;;;;;;;;;;;;10.22;48.48;99900.63;4416801;32;36020;-83
2024/01/25 10:06:25;;;;;;;;;;;;;;;10.38;47.97;99903.09;4413244;32;33650;-83
2024/01/25 10:08:55;;;;;;;;;;;;;;;10.30;48.48;99904.91;4405147;32;32903;-83
2024/01/25 10:11:25;;;;;;;;;;;;;;;10.26;48.84;99906.62;4411385;32;36227;-83
2024/01/25 10:13:56;;;;;;;;;;;;;;;10.19;49.56;99905.81;4422229;32;34054;-82
2024/01/25 10:16:26;;;;;;;;;;;;;;;10.22;49.89;99899.72;4418126;32;33821;-83
2024/01/25 10:18:56;;;;;;;;;;;;;;;10.37;49.83;99904.84;4417409;32;34055;-83
2024/01/25 10:21:28;;;;;;;;;;;;;;;10.28;50.03;99897.13;4417175;32;34462;-83
2024/01/25 10:24:03;;;;;;;;;;;;;;;10.30;48.38;99917.87;4411207;32;34880;-83
2024/01/25 10:26:32;;;;;;;;;;;;;;;10.08;48.21;99894.69;4407468;32;34080;-82
2024/01/25 10:29:01;;;;;;;;;;;;;;;10.19;47.77;99889.41;4387285;32;32682;-83
2024/01/25 10:31:32;;;;;;;;;;;;;;;10.17;47.65;99886.84;4409782;32;34130;-83
2024/01/25 10:34:04;;;;;;;;;;;;;;;10.28;47.88;99927.38;4419341;32;34381;-83
2024/01/25 10:36:33;;;;;;;;;;;;;;;10.08;47.81;99873.09;4419782;32;34368;-83
2024/01/25 10:39:04;;;;;;;;;;;;;;;9.97;48.40;99888.72;4402021;32;32994;-82
2024/01/25 10:41:33;;;;;;;;;;;;;;;9.94;48.72;99888.75;4401781;32;33665;-83
2024/01/25 10:44:07;;;;;;;;;;;;;;;9.92;48.83;99900.84;4415491;32;34828;-83
2024/01/25 10:46:37;;;;;;;;;;;;;;;9.78;48.91;99873.28;4404637;32;33948;-82
2024/01/25 10:49:07;;;;;;;;;;;;;;;9.85;49.16;99886.22;4407448;32;33265;-82
2024/01/25 10:51:36;;;;;;;;;;;;;;;9.93;49.02;99889.59;4416491;32;34205;-83
2024/01/25 10:54:11;;;;;;;;;;;;;;;10.03;48.70;99915.44;4417858;32;34283;-83
2024/01/25 10:56:41;;;;;;;;;;;;;;;10.02;48.44;99881.75;4418915;32;34829;-83
2024/01/25 10:59:16;;;;;;;;;;;;;;;10.13;48.08;99876.50;4416628;32;34293;-83
2024/01/25 11:01:53;;;;;;;;;;;;;;;10.12;47.51;99861.81;4406942;32;33886;-83
2024/01/25 11:04:22;;;;;;;;;;;;;;;10.03;47.66;99888.69;4401540;32;34068;-83
2024/01/25 11:06:52;;;;;;;;;;;;;;;10.06;48.05;99887.78;4405510;32;34820;-83
2024/01/25 11:09:21;;;;;;;;;;;;;;;9.94;47.57;99870.59;4414475;32;33115;-83
2024/01/25 11:11:57;;;;;;;;;;;;;;;9.97;47.68;99883.53;4422069;32;33360;-83
2024/01/25 11:14:26;;;;;;;;;;;;;;;10.09;46.81;99878.25;4416702;32;33739;-83
2024/01/25 11:16:58;;;;;;;;;;;;;;;9.93;47.22;99887.00;4416723;32;33711;-82
2024/01/25 11:19:27;;;;;;;;;;;;;;;9.79;47.35;99872.44;4416442;32;33401;-82
2024/01/25 11:21:59;;;;;;;;;;;;;;;9.95;47.34;99880.94;4417463;32;34213;-83
2024/01/25 11:24:28;;;;;;;;;;;;;;;10.12;46.80;99900.69;4421384;32;34915;-82
2024/01/25 11:27:00;;;;;;;;;;;;;;;10.04;47.47;99880.03;4418778;32;34721;-83
2024/01/25 11:29:29;;;;;;;;;;;;;;;10.20;46.71;99888.53;4417117;32;34017;-81
2024/01/25 11:32:00;;;;;;;;;;;;;;;9.77;47.78;99871.59;4416387;32;33770;-81
2024/01/25 11:34:29;;;;;;;;;;;;;;;9.98;47.64;99912.03;4422217;32;34081;-81
2024/01/25 11:37:04;;;;;;;;;;;;;;;9.86;48.03;99880.16;4421698;32;34657;-82
2024/01/25 11:39:33;;;;;;;;;;;;;;;9.91;48.16;99919.88;4416453;32;34051;-81
2024/01/25 11:42:01;;;;;;;;;;;;;;;9.92;47.96;99887.91;4401765;32;33449;-82
2024/01/25 11:44:30;;;;;;;;;;;;;;;9.70;48.53;99897.53;4417466;32;34385;-81
2024/01/25 11:47:05;;;;;;;;;;;;;;;9.62;48.68;99882.06;4422262;32;34295;-81
2024/01/25 11:49:35;;;;;;;;;;;;;;;9.74;48.90;99894.94;4417825;32;33004;-81
2024/01/25 11:52:05;;;;;;;;;;;;;;;9.81;48.27;99881.06;4417189;32;34272;-81
2024/01/25 11:54:34;;;;;;;;;;;;;;;9.69;48.77;99886.31;4416632;32;34850;-81
2024/01/25 11:57:10;;;;;;;;;;;;;;;9.77;48.44;99873.31;4421496;32;34068;-82
2024/01/25 11:59:39;;;;;;;;;;;;;;;9.94;48.10;99888.75;4420633;32;32912;-81
2024/01/25 12:02:11;;;;;;;;;;;;;;;9.89;47.93;99891.38;4414925;32;34054;-82
2024/01/25 12:04:40;;;;;;;;;;;;;;;9.79;47.85;99887.13;4415063;32;35192;-81
2024/01/25 12:07:10;;;;;;;;;;;;;;;9.63;47.53;99893.28;4414786;32;34782;-81
2024/01/25 12:09:39;;;;;;;;;;;;;;;9.54;47.59;99897.66;4420412;32;32964;-81
2024/01/25 12:12:09;;;;;;;;;;;;;;;9.74;47.98;99897.53;4416049;32;33905;-81
2024/01/25 12:14:38;;;;;;;;;;;;;;;9.82;47.23;99903.50;4417653;32;34069;-81
2024/01/25 12:17:08;;;;;;;;;;;;;;;9.63;46.60;99922.63;4418564;32;33679;-82
2024/01/25 12:19:41;;;;;;;;;;;;;;;9.69;46.44;99896.69;4418186;32;32524;-81
2024/01/25 12:22:11;;;;;;;;;;;;;;;9.66;46.74;99912.22;4421980;32;33927;-81
2024/01/25 12:24:43;;;;;;;;;;;;;;;9.97;46.23;99912.91;4408850;32;34046;-81
2024/01/25 12:27:27;;;;;;;;;;;;;;;9.91;46.00;99919.88;4405107;32;34874;-81
2024/01/25 12:29:58;;;;;;;;;;;;;;;9.81;46.25;99917.34;4387958;32;33140;-81
2024/01/25 12:32:27;;;;;;;;;;;;;;;9.78;46.34;99912.16;4405599;32;34567;-81
2024/01/25 12:35:03;;;;;;;;;;;;;;;9.90;46.01;99912.94;4403742;32;34004;-81
2024/01/25 12:37:32;;;;;;;;;;;;;;;9.78;46.18;99914.75;4404258;32;34879;-81
2024/01/25 12:40:08;;;;;;;;;;;;;;;9.85;45.60;99887.06;4400886;32;35015;-81
2024/01/25 12:42:38;;;;;;;;;;;;;;;9.73;46.06;99895.78;4400562;32;33991;-81
2024/01/25 12:45:09;;;;;;;;;;;;;;;9.80;45.65;99904.38;4406530;32;34043;-82
2024/01/25 12:47:51;;;;;;;;;;;;;;;9.79;45.63;99887.13;4400966;32;34181;-82
2024/01/25 12:50:29;;;;;;;;;;;;;;;9.63;46.39;99903.63;4400452;32;32493;-81
2024/01/25 12:52:59;;;;;;;;;;;;;;;9.87;45.74;99907.81;4400444;32;33161;-82
2024/01/25 12:55:37;;;;;;;;;;;;;;;9.66;45.92;99888.91;4400818;32;34053;-81
2024/01/25 12:58:12;;;;;;;;;;;;;;;9.81;45.85;99894.03;4405574;32;35043;-81
2024/01/25 13:00:40;;;;;;;;;;;;;;;9.68;46.52;99889.78;4402405;32;34224;-81
2024/01/25 13:03:10;;;;;;;;;;;;;;;9.69;46.20;99875.97;4400194;32;33921;-81
2024/01/25 13:05:40;;;;;;;;;;;;;;;9.78;46.97;99868.09;4405445;32;34414;-81
2024/01/25 13:08:13;;;;;;;;;;;;;;;9.78;46.76;99875.88;4403211;32;34675;-81
2024/01/25 13:10:42;;;;;;;;;;;;;;;9.78;46.45;99883.66;4420804;32;33683;-81
2024/01/25 13:13:17;;;;;;;;;;;;;;;9.74;46.69;99870.75;4415006;32;34598;-81
2024/01/25 13:15:46;;;;;;;;;;;;;;;9.70;46.54;99866.47;4418190;32;34648;-81
2024/01/25 13:18:16;;;;;;;;;;;;;;;9.80;46.72;99876.72;4415857;32;33515;-81